createdAt,value
2023-10-04T00:00:17.644Z,777.70
2023-10-04T00:01:16.636Z,701.90
2023-10-04T00:02:16.589Z,778.10
2023-10-04T00:03:17.242Z,762.90
2023-10-04T00:04:16.809Z,614.80
2023-10-04T00:05:17.044Z,787.50
2023-10-04T00:06:16.584Z,685.50
2023-10-04T00:07:16.486Z,772.30
2023-10-04T00:08:16.485Z,607.90
2023-10-04T00:09:16.473Z,730.10
2023-10-04T00:10:16.448Z,712.00
2023-10-04T00:11:16.519Z,700.50
2023-10-04T00:12:16.549Z,735.30
2023-10-04T00:13:16.393Z,667.10
2023-10-04T00:14:16.524Z,644.00
2023-10-04T00:15:16.646Z,671.20
2023-10-04T00:16:16.598Z,655.70
2023-10-04T00:17:16.373Z,713.50
2023-10-04T00:18:16.723Z,750.40
2023-10-04T00:19:16.371Z,808.10
2023-10-04T00:20:16.388Z,688.40
2023-10-04T00:21:16.472Z,593.70
2023-10-04T00:22:16.248Z,786.30
2023-10-04T00:23:16.287Z,685.20
2023-10-04T00:24:16.321Z,610.00
2023-10-04T00:25:16.277Z,680.20
2023-10-04T00:26:16.253Z,667.00
2023-10-04T00:27:16.240Z,763.60
2023-10-04T00:28:16.216Z,750.10
2023-10-04T00:29:16.186Z,759.10
2023-10-04T00:30:16.242Z,705.70
2023-10-04T00:31:16.612Z,658.70
2023-10-04T00:32:16.111Z,732.70
2023-10-04T00:33:16.168Z,711.20
2023-10-04T00:34:19.428Z,762.70
2023-10-04T00:35:16.125Z,631.70
2023-10-04T00:36:16.153Z,732.80
2023-10-04T00:37:16.208Z,751.60
2023-10-04T00:38:16.092Z,743.50
2023-10-04T00:39:16.077Z,774.70
2023-10-04T00:40:16.054Z,694.70
2023-10-04T00:41:15.988Z,696.70
2023-10-04T00:42:16.063Z,722.40
2023-10-04T00:43:16.072Z,720.40
2023-10-04T00:44:16.228Z,714.90
2023-10-04T00:45:16.035Z,765.70
2023-10-04T00:46:15.967Z,791.20
2023-10-04T00:47:15.905Z,761.40
2023-10-04T00:48:16.887Z,696.00
2023-10-04T00:49:15.986Z,793.50
2023-10-04T00:50:16.515Z,753.80
2023-10-04T00:51:15.983Z,687.60
2023-10-04T00:52:15.916Z,721.50
2023-10-04T00:53:15.879Z,789.60
2023-10-04T00:54:16.057Z,689.50
2023-10-04T00:55:16.375Z,716.80
2023-10-04T00:56:15.783Z,780.20
2023-10-04T00:57:16.094Z,722.70
2023-10-04T00:58:15.834Z,822.50
2023-10-04T00:59:16.614Z,736.00
2023-10-04T01:00:16.446Z,722.10
2023-10-04T01:01:15.934Z,842.00
2023-10-04T01:02:16.217Z,742.60
2023-10-04T01:03:16.150Z,730.90
2023-10-04T01:04:16.033Z,801.40
2023-10-04T01:05:15.782Z,767.40
2023-10-04T01:06:15.707Z,806.50
2023-10-04T01:07:15.986Z,753.30
2023-10-04T01:08:16.483Z,691.50
2023-10-04T01:09:20.402Z,758.10
2023-10-04T01:10:15.632Z,638.00
2023-10-04T01:11:15.695Z,668.90
2023-10-04T01:12:15.639Z,725.00
2023-10-04T01:13:15.642Z,800.50
2023-10-04T01:14:15.579Z,714.00
2023-10-04T01:15:15.951Z,815.60
2023-10-04T01:16:15.810Z,599.10
2023-10-04T01:17:15.576Z,717.00
2023-10-04T01:18:16.437Z,753.30
2023-10-04T01:19:15.670Z,808.50
2023-10-04T01:20:15.980Z,827.80
2023-10-04T01:21:15.542Z,745.30
2023-10-04T01:22:15.955Z,836.80
2023-10-04T01:23:15.901Z,676.70
2023-10-04T01:24:16.284Z,757.60
2023-10-04T01:25:15.456Z,842.50
2023-10-04T01:26:15.517Z,624.40
2023-10-04T01:27:15.507Z,684.70
2023-10-04T01:28:15.444Z,658.30
2023-10-04T01:29:15.372Z,793.80
2023-10-04T01:30:16.158Z,717.40
2023-10-04T01:31:15.367Z,728.70
2023-10-04T01:32:15.311Z,807.10
2023-10-04T01:33:15.441Z,722.20
2023-10-04T01:34:15.356Z,701.50
2023-10-04T01:35:15.341Z,746.40
2023-10-04T01:36:15.887Z,808.50
2023-10-04T01:37:17.193Z,785.00
2023-10-04T01:38:16.574Z,834.40
2023-10-04T01:39:16.526Z,764.40
2023-10-04T01:49:12.460Z,852.70
2023-10-04T01:50:10.547Z,810.60
2023-10-04T01:51:10.565Z,799.80
2023-10-04T01:52:11.324Z,815.80
2023-10-04T01:53:09.934Z,857.70
2023-10-04T01:54:10.130Z,785.70
2023-10-04T01:55:10.004Z,689.70
2023-10-04T01:56:13.194Z,754.80
2023-10-04T01:57:10.101Z,756.60
2023-10-04T01:58:10.068Z,726.80
2023-10-04T01:59:09.858Z,792.50
2023-10-04T02:00:10.045Z,783.80
2023-10-04T02:01:09.968Z,769.50
2023-10-04T02:02:09.845Z,842.00
2023-10-04T02:03:10.235Z,760.90
2023-10-04T02:04:09.942Z,799.40
2023-10-04T02:05:09.792Z,762.50
2023-10-04T02:06:09.903Z,758.90
2023-10-04T02:07:10.021Z,729.80
2023-10-04T02:08:10.202Z,641.80
2023-10-04T02:09:10.520Z,816.10
2023-10-04T02:10:09.954Z,857.60
2023-10-04T02:11:10.163Z,715.20
2023-10-04T02:12:09.770Z,697.70
2023-10-04T02:13:10.041Z,749.00
2023-10-04T02:14:09.950Z,840.50
2023-10-04T02:15:09.655Z,717.50
2023-10-04T02:16:09.914Z,778.40
2023-10-04T02:17:09.645Z,715.20
2023-10-04T02:18:10.277Z,713.60
2023-10-04T02:19:09.615Z,765.70
2023-10-04T02:20:09.738Z,705.00
2023-10-04T02:21:09.888Z,847.40
2023-10-04T02:22:09.614Z,828.60
2023-10-04T02:23:09.726Z,793.70
2023-10-04T02:24:09.573Z,708.50
2023-10-04T02:25:09.671Z,796.20
2023-10-04T02:26:09.490Z,834.90
2023-10-04T02:27:09.724Z,696.20
2023-10-04T02:28:09.493Z,595.00
2023-10-04T02:29:09.494Z,720.50
2023-10-04T02:30:09.517Z,722.10
2023-10-04T02:31:09.445Z,820.30
2023-10-04T02:32:09.426Z,835.80
2023-10-04T02:33:09.481Z,799.50
2023-10-04T02:34:10.145Z,637.10
2023-10-04T02:35:09.555Z,523.30
2023-10-04T02:36:09.848Z,598.40
2023-10-04T02:37:09.450Z,716.10
2023-10-04T02:38:09.794Z,633.20
2023-10-04T02:39:09.519Z,745.70
2023-10-04T02:40:09.311Z,763.80
2023-10-04T02:41:09.286Z,685.70
2023-10-04T02:42:09.417Z,731.00
2023-10-04T02:43:09.320Z,749.50
2023-10-04T02:44:09.261Z,678.90
2023-10-04T02:45:09.964Z,726.60
2023-10-04T02:46:09.465Z,746.50
2023-10-04T02:47:09.351Z,788.10
2023-10-04T02:48:09.285Z,741.40
2023-10-04T02:49:09.167Z,709.70
2023-10-04T02:50:09.200Z,816.00
2023-10-04T02:51:09.350Z,614.70
2023-10-04T02:52:09.210Z,783.90
2023-10-04T02:53:09.128Z,744.90
2023-10-04T02:54:09.550Z,760.10
2023-10-04T02:55:09.240Z,704.50
2023-10-04T02:56:09.073Z,740.80
2023-10-04T02:57:09.089Z,727.60
2023-10-04T02:58:09.219Z,728.40
2023-10-04T02:59:09.049Z,769.50
2023-10-04T03:00:09.256Z,762.70
2023-10-04T03:01:09.109Z,693.30
2023-10-04T03:02:09.200Z,779.10
2023-10-04T03:03:09.603Z,623.50
2023-10-04T03:04:08.932Z,692.90
2023-10-04T03:05:09.435Z,710.10
2023-10-04T03:06:09.143Z,730.10
2023-10-04T03:07:08.958Z,690.00
2023-10-04T03:08:09.416Z,777.20
2023-10-04T03:09:08.875Z,721.90
2023-10-04T03:10:09.514Z,729.10
2023-10-04T03:11:08.850Z,754.10
2023-10-04T03:12:09.426Z,746.00
2023-10-04T03:13:08.930Z,793.10
2023-10-04T03:14:08.829Z,737.70
2023-10-04T03:15:08.835Z,697.80
2023-10-04T03:16:09.431Z,635.80
2023-10-04T03:17:11.580Z,769.50
2023-10-04T03:18:09.778Z,708.20
2023-10-04T03:19:08.951Z,697.50
2023-10-04T03:20:09.388Z,629.00
2023-10-04T03:21:08.833Z,791.50
2023-10-04T03:22:09.262Z,744.40
2023-10-04T03:23:08.678Z,716.70
2023-10-04T03:24:09.135Z,710.90
2023-10-04T03:25:08.670Z,747.70
2023-10-04T03:26:08.901Z,714.90
2023-10-04T03:27:08.912Z,689.20
2023-10-04T03:28:09.099Z,670.70
2023-10-04T03:29:08.707Z,705.90
2023-10-04T03:30:08.594Z,589.50
2023-10-04T03:31:08.619Z,706.00
2023-10-04T03:32:08.566Z,803.60
2023-10-04T03:33:10.449Z,643.50
2023-10-04T03:34:08.801Z,646.10
2023-10-04T03:35:08.871Z,812.80
2023-10-04T03:36:08.696Z,672.50
2023-10-04T03:37:09.434Z,716.40
2023-10-04T03:38:08.534Z,737.60
2023-10-04T03:39:08.549Z,711.70
2023-10-04T03:40:08.444Z,761.10
2023-10-04T03:41:08.603Z,789.20
2023-10-04T03:42:08.841Z,744.00
2023-10-04T03:43:08.443Z,742.10
2023-10-04T03:44:08.559Z,718.30
2023-10-04T03:45:08.471Z,615.10
2023-10-04T03:46:08.694Z,680.90
2023-10-04T03:47:08.421Z,721.40
2023-10-04T03:48:08.474Z,692.00
2023-10-04T03:49:08.786Z,715.30
2023-10-04T03:50:08.461Z,873.40
2023-10-04T03:51:09.391Z,664.40
2023-10-04T03:52:08.931Z,829.80
2023-10-04T03:53:08.365Z,843.00
2023-10-04T03:54:08.921Z,850.70
2023-10-04T03:55:08.300Z,812.10
2023-10-04T03:56:08.237Z,778.40
2023-10-04T03:57:08.610Z,752.70
2023-10-04T03:58:08.443Z,680.90
2023-10-04T03:59:08.254Z,698.90
2023-10-04T04:00:08.565Z,722.30
2023-10-04T04:01:08.459Z,719.70
2023-10-04T04:02:08.265Z,683.10
2023-10-04T04:03:08.904Z,759.50
2023-10-04T04:04:08.394Z,757.80
2023-10-04T04:05:08.378Z,744.20
2023-10-04T04:06:08.134Z,656.50
2023-10-04T04:07:08.404Z,691.60
2023-10-04T04:08:08.089Z,838.00
2023-10-04T04:09:08.371Z,728.70
2023-10-04T04:10:08.273Z,802.60
2023-10-04T04:11:08.040Z,620.00
2023-10-04T04:12:08.027Z,687.70
2023-10-04T04:13:08.028Z,690.80
2023-10-04T04:14:08.274Z,799.20
2023-10-04T04:15:08.090Z,736.00
2023-10-04T04:16:07.946Z,684.10
2023-10-04T04:17:07.986Z,722.60
2023-10-04T04:18:08.344Z,635.80
2023-10-04T04:19:07.967Z,843.40
2023-10-04T04:20:07.877Z,655.10
2023-10-04T04:21:07.922Z,614.30
2023-10-04T04:22:07.832Z,643.50
2023-10-04T04:23:07.862Z,672.10
2023-10-04T04:24:08.011Z,799.20
2023-10-04T04:25:08.186Z,581.50
2023-10-04T04:26:07.897Z,599.30
2023-10-04T04:27:08.184Z,746.90
2023-10-04T04:28:07.802Z,869.00
2023-10-04T04:29:07.763Z,647.70
2023-10-04T04:30:07.933Z,618.60
2023-10-04T04:31:07.845Z,732.60
2023-10-04T04:32:07.704Z,711.00
2023-10-04T04:33:07.779Z,689.20
2023-10-04T04:34:07.710Z,794.00
2023-10-04T04:35:07.684Z,605.70
2023-10-04T04:36:07.954Z,672.00
2023-10-04T04:37:07.668Z,699.10
2023-10-04T04:38:07.628Z,797.80
2023-10-04T04:39:11.035Z,650.90
2023-10-04T04:40:08.029Z,655.50
2023-10-04T04:41:07.641Z,686.90
2023-10-04T04:42:07.897Z,808.00
2023-10-04T04:43:07.825Z,754.00
2023-10-04T04:44:07.573Z,906.20
2023-10-04T04:45:07.656Z,730.10
2023-10-04T04:46:07.615Z,732.30
2023-10-04T04:47:07.516Z,852.10
2023-10-04T04:48:07.707Z,746.80
2023-10-04T04:49:07.492Z,602.80
2023-10-04T04:50:07.736Z,805.40
2023-10-04T04:51:07.447Z,844.80
2023-10-04T04:52:07.450Z,644.90
2023-10-04T04:53:07.397Z,790.50
2023-10-04T04:54:07.396Z,721.50
2023-10-04T04:55:07.381Z,592.00
2023-10-04T04:56:07.452Z,847.90
2023-10-04T04:57:07.347Z,761.20
2023-10-04T04:58:07.355Z,754.50
2023-10-04T04:59:07.565Z,702.60
2023-10-04T05:00:07.340Z,708.30
2023-10-04T05:01:07.567Z,640.10
2023-10-04T05:02:07.465Z,723.10
2023-10-04T05:03:07.794Z,833.90
2023-10-04T05:04:07.401Z,682.00
2023-10-04T05:05:07.256Z,644.60
2023-10-04T05:06:07.501Z,775.90
2023-10-04T05:07:07.271Z,663.10
2023-10-04T05:08:08.341Z,563.30
2023-10-04T05:09:07.605Z,580.40
2023-10-04T05:10:07.217Z,793.80
2023-10-04T05:11:07.584Z,829.70
2023-10-04T05:12:07.429Z,781.20
2023-10-04T05:13:07.156Z,716.70
2023-10-04T05:14:07.882Z,836.70
2023-10-04T05:15:07.143Z,653.40
2023-10-04T05:16:07.326Z,803.00
2023-10-04T05:17:07.119Z,810.70
2023-10-04T05:18:07.477Z,718.30
2023-10-04T05:19:07.350Z,751.20
2023-10-04T05:20:07.266Z,805.00
2023-10-04T05:21:07.380Z,796.00
2023-10-04T05:22:07.282Z,665.90
2023-10-04T05:23:07.027Z,794.70
2023-10-04T05:24:07.131Z,816.30
2023-10-04T05:25:07.078Z,761.40
2023-10-04T05:26:06.969Z,785.00
2023-10-04T05:27:07.016Z,743.20
2023-10-04T05:28:07.050Z,862.40
2023-10-04T05:29:07.177Z,782.80
2023-10-04T05:30:07.026Z,690.30
2023-10-04T05:31:06.902Z,621.50
2023-10-04T05:32:07.252Z,789.70
2023-10-04T05:33:07.854Z,620.40
2023-10-04T05:34:09.009Z,805.20
2023-10-04T05:35:07.031Z,649.30
2023-10-04T05:36:06.894Z,854.60
2023-10-04T05:37:06.789Z,604.80
2023-10-04T05:38:06.827Z,628.50
2023-10-04T05:39:06.950Z,787.00
2023-10-04T05:40:06.970Z,709.20
2023-10-04T05:41:06.731Z,846.30
2023-10-04T05:42:06.732Z,714.80
2023-10-04T05:43:06.667Z,695.40
2023-10-04T05:44:06.714Z,675.20
2023-10-04T05:45:06.809Z,793.90
2023-10-04T05:46:06.745Z,737.80
2023-10-04T05:47:06.658Z,757.90
2023-10-04T05:48:06.963Z,752.70
2023-10-04T05:49:06.846Z,689.40
2023-10-04T05:50:06.613Z,763.00
2023-10-04T05:51:06.638Z,767.60
2023-10-04T05:52:06.886Z,781.40
2023-10-04T05:53:06.738Z,796.60
2023-10-04T05:54:08.534Z,777.00
2023-10-04T05:55:07.446Z,761.10
2023-10-04T05:56:06.790Z,722.70
2023-10-04T05:57:06.544Z,781.00
2023-10-04T05:58:06.534Z,792.80
2023-10-04T05:59:06.616Z,745.00
2023-10-04T06:00:06.542Z,734.30
2023-10-04T06:01:06.510Z,712.70
2023-10-04T06:02:06.474Z,781.40
2023-10-04T06:03:06.804Z,704.00
2023-10-04T06:04:06.498Z,685.90
2023-10-04T06:05:06.774Z,662.40
2023-10-04T06:06:06.486Z,720.80
2023-10-04T06:07:06.392Z,762.00
2023-10-04T06:08:06.392Z,736.20
2023-10-04T06:09:06.380Z,727.10
2023-10-04T06:10:06.360Z,774.20
2023-10-04T06:11:06.301Z,673.60
2023-10-04T06:12:06.372Z,646.50
2023-10-04T06:13:06.302Z,685.30
2023-10-04T06:14:06.480Z,714.70
2023-10-04T06:15:06.540Z,593.80
2023-10-04T06:16:06.757Z,702.20
2023-10-04T06:17:06.243Z,630.70
2023-10-04T06:18:06.545Z,714.90
2023-10-04T06:19:19.628Z,730.30
2023-10-04T06:20:07.281Z,652.60
2023-10-04T06:21:06.309Z,669.10
2023-10-04T06:22:06.135Z,583.70
2023-10-04T06:23:06.260Z,672.10
2023-10-04T06:24:06.213Z,720.50
2023-10-04T06:25:06.385Z,533.00
2023-10-04T06:26:06.167Z,637.90
2023-10-04T06:27:06.667Z,729.00
2023-10-04T06:28:06.572Z,558.60
2023-10-04T06:29:06.191Z,600.60
2023-10-04T06:30:06.117Z,719.10
2023-10-04T06:31:06.091Z,686.50
2023-10-04T06:32:06.120Z,597.50
2023-10-04T06:33:06.118Z,600.20
2023-10-04T06:34:06.296Z,523.00
2023-10-04T06:35:06.049Z,552.30
2023-10-04T06:36:06.036Z,646.60
2023-10-04T06:37:05.934Z,554.50
2023-10-04T06:38:07.009Z,693.50
2023-10-04T06:39:06.032Z,627.60
2023-10-04T06:40:05.942Z,571.30
2023-10-04T06:41:05.869Z,418.20
2023-10-04T06:42:05.936Z,616.70
2023-10-04T06:43:05.836Z,660.60
2023-10-04T06:44:05.875Z,637.90
2023-10-04T06:45:06.080Z,670.70
2023-10-04T06:46:05.933Z,587.40
2023-10-04T06:47:05.803Z,562.90
2023-10-04T06:48:05.983Z,600.40
2023-10-04T06:49:05.997Z,643.80
2023-10-04T06:50:05.774Z,597.00
2023-10-04T06:51:05.783Z,594.20
2023-10-04T06:52:05.748Z,604.60
2023-10-04T06:53:06.025Z,603.00
2023-10-04T06:54:05.922Z,594.80
2023-10-04T06:55:05.667Z,673.20
2023-10-04T06:56:05.667Z,497.90
2023-10-04T06:57:05.849Z,472.10
2023-10-04T06:58:05.671Z,523.20
2023-10-04T06:59:05.790Z,523.40
2023-10-04T07:00:05.632Z,626.40
2023-10-04T07:01:06.491Z,628.70
2023-10-04T07:02:05.630Z,578.00
2023-10-04T07:03:06.126Z,509.30
2023-10-04T07:04:05.771Z,538.80
2023-10-04T07:05:05.550Z,495.50
2023-10-04T07:06:05.695Z,446.20
2023-10-04T07:07:05.817Z,435.30
2023-10-04T07:08:05.559Z,501.30
2023-10-04T07:09:05.839Z,537.30
2023-10-04T07:10:05.654Z,467.60
2023-10-04T07:11:05.537Z,544.80
2023-10-04T07:12:05.656Z,594.60
2023-10-04T07:13:05.424Z,508.00
2023-10-04T07:14:05.502Z,489.40
2023-10-04T07:15:05.438Z,450.30
2023-10-04T07:16:05.552Z,596.90
2023-10-04T07:17:05.349Z,499.00
2023-10-04T07:18:05.723Z,546.30
2023-10-04T07:19:05.700Z,577.10
2023-10-04T07:20:05.442Z,498.40
2023-10-04T07:21:05.462Z,415.80
2023-10-04T07:22:05.464Z,488.60
2023-10-04T07:23:05.335Z,430.00
2023-10-04T07:24:05.614Z,576.90
2023-10-04T07:25:05.949Z,497.10
2023-10-04T07:26:05.265Z,492.90
2023-10-04T07:27:05.349Z,580.90
2023-10-04T07:28:05.292Z,619.20
2023-10-04T07:29:05.388Z,574.80
2023-10-04T07:30:05.490Z,475.90
2023-10-04T07:31:05.543Z,526.30
2023-10-04T07:32:05.207Z,454.30
2023-10-04T07:33:05.447Z,606.90
2023-10-04T07:34:05.461Z,602.40
2023-10-04T07:35:05.147Z,457.10
2023-10-04T07:36:05.353Z,545.90
2023-10-04T07:37:05.230Z,461.90
2023-10-04T07:38:05.137Z,572.50
2023-10-04T07:39:05.108Z,616.60
2023-10-04T07:40:05.066Z,649.30
2023-10-04T07:41:05.023Z,694.90
2023-10-04T07:42:05.017Z,593.80
2023-10-04T07:43:05.064Z,525.90
2023-10-04T07:44:05.198Z,515.60
2023-10-04T07:45:04.988Z,443.80
2023-10-04T07:46:05.125Z,580.80
2023-10-04T07:47:05.042Z,569.30
2023-10-04T07:48:05.265Z,484.50
2023-10-04T07:49:04.947Z,451.60
2023-10-04T07:50:04.961Z,561.40
2023-10-04T07:51:05.199Z,486.90
2023-10-04T07:52:05.175Z,481.00
2023-10-04T07:53:05.147Z,579.90
2023-10-04T07:54:05.255Z,513.30
2023-10-04T07:55:05.093Z,417.20
2023-10-04T07:56:04.864Z,368.20
2023-10-04T07:57:04.844Z,409.30
2023-10-04T07:58:05.355Z,531.10
2023-10-04T07:59:04.811Z,538.50
2023-10-04T08:00:04.826Z,471.80
2023-10-04T08:01:04.761Z,422.30
2023-10-04T08:02:04.867Z,445.50
2023-10-04T08:03:04.944Z,380.60
2023-10-04T08:04:05.594Z,506.90
2023-10-04T08:05:04.671Z,435.00
2023-10-04T08:06:04.679Z,464.60
2023-10-04T08:07:04.710Z,438.80
2023-10-04T08:08:06.091Z,434.80
2023-10-04T08:09:05.004Z,465.60
2023-10-04T08:10:04.868Z,538.30
2023-10-04T08:11:04.840Z,454.10
2023-10-04T08:12:04.586Z,492.00
2023-10-04T08:13:04.648Z,524.00
2023-10-04T08:14:04.744Z,464.50
2023-10-04T08:15:04.532Z,458.40
2023-10-04T08:16:04.715Z,394.00
2023-10-04T08:17:04.565Z,304.90
2023-10-04T08:18:04.611Z,485.50
2023-10-04T08:19:04.509Z,465.80
2023-10-04T08:20:04.505Z,567.80
2023-10-04T08:21:04.443Z,590.50
2023-10-04T08:22:04.460Z,442.20
2023-10-04T08:23:04.681Z,604.60
2023-10-04T08:24:04.667Z,485.30
2023-10-04T08:25:04.410Z,494.00
2023-10-04T08:26:04.655Z,394.70
2023-10-04T08:27:04.398Z,499.50
2023-10-04T08:28:04.815Z,490.80
2023-10-04T08:29:04.326Z,500.90
2023-10-04T08:30:04.324Z,410.10
2023-10-04T08:31:04.395Z,505.10
2023-10-04T08:32:04.338Z,329.10
2023-10-04T08:33:04.840Z,260.00
2023-10-04T08:34:04.727Z,432.50
2023-10-04T08:35:04.275Z,421.60
2023-10-04T08:36:04.257Z,299.90
2023-10-04T08:37:04.256Z,402.00
2023-10-04T08:38:05.072Z,658.60
2023-10-04T08:39:04.412Z,616.10
2023-10-04T08:40:04.277Z,583.10
2023-10-04T08:41:04.149Z,547.30
2023-10-04T08:42:04.161Z,403.60
2023-10-04T08:43:04.130Z,393.20
2023-10-04T08:44:04.319Z,509.70
2023-10-04T08:45:04.306Z,507.90
2023-10-04T08:46:04.231Z,492.60
2023-10-04T08:47:04.306Z,437.90
2023-10-04T08:48:04.873Z,468.80
2023-10-04T08:49:04.203Z,513.90
2023-10-04T08:50:04.045Z,456.50
2023-10-04T08:51:04.103Z,523.70
2023-10-04T08:52:04.073Z,509.80
2023-10-04T08:53:04.239Z,545.60
2023-10-04T08:54:04.181Z,577.70
2023-10-04T08:55:04.285Z,443.60
2023-10-04T08:56:03.984Z,541.30
2023-10-04T08:57:03.957Z,513.50
2023-10-04T08:58:04.049Z,446.60
2023-10-04T08:59:03.988Z,546.80
2023-10-04T09:00:11.544Z,564.30
2023-10-04T09:01:04.984Z,571.20
2023-10-04T09:02:03.926Z,509.70
2023-10-04T09:03:04.103Z,505.00
2023-10-04T09:04:04.374Z,585.20
2023-10-04T09:05:03.966Z,529.10
2023-10-04T09:06:03.835Z,457.10
2023-10-04T09:07:03.790Z,431.10
2023-10-04T09:08:03.851Z,458.40
2023-10-04T09:09:03.874Z,626.70
2023-10-04T09:10:03.768Z,585.90
2023-10-04T09:11:03.767Z,449.30
2023-10-04T09:12:03.871Z,514.40
2023-10-04T09:13:03.766Z,524.90
2023-10-04T09:14:04.112Z,589.20
2023-10-04T09:15:03.703Z,541.80
2023-10-04T09:16:04.047Z,526.60
2023-10-04T09:17:03.973Z,573.40
2023-10-04T09:18:03.945Z,546.20
2023-10-04T09:19:03.897Z,672.80
2023-10-04T09:20:03.738Z,616.40
2023-10-04T09:21:03.830Z,684.70
2023-10-04T09:22:03.612Z,617.00
2023-10-04T09:23:03.654Z,472.60
2023-10-04T09:24:03.896Z,494.40
2023-10-04T09:25:03.652Z,315.20
2023-10-04T09:26:03.531Z,440.70
2023-10-04T09:27:03.563Z,359.90
2023-10-04T09:28:03.514Z,493.50
2023-10-04T09:29:03.548Z,480.00
2023-10-04T09:30:03.592Z,469.40
2023-10-04T09:31:03.547Z,521.20
2023-10-04T09:32:03.505Z,500.80
2023-10-04T09:33:03.496Z,506.20
2023-10-04T09:34:03.659Z,504.20
2023-10-04T09:35:03.423Z,535.10
2023-10-04T09:36:03.438Z,580.30
2023-10-04T09:37:03.645Z,475.40
2023-10-04T09:38:03.369Z,549.70
2023-10-04T09:39:03.374Z,537.90
2023-10-04T09:40:03.405Z,558.30
2023-10-04T09:41:03.596Z,616.10
2023-10-04T09:42:03.351Z,534.30
2023-10-04T09:43:03.353Z,610.40
2023-10-04T09:44:03.702Z,456.80
2023-10-04T09:45:03.265Z,584.60
2023-10-04T09:46:03.262Z,519.00
2023-10-04T09:47:03.492Z,469.10
2023-10-04T09:48:03.255Z,520.50
2023-10-04T09:49:03.229Z,296.40
2023-10-04T09:50:03.493Z,297.10
2023-10-04T09:51:03.250Z,291.70
2023-10-04T09:52:03.172Z,320.10
2023-10-04T09:53:03.244Z,247.40
2023-10-04T09:54:03.350Z,194.80
2023-10-04T09:55:03.147Z,303.90
2023-10-04T09:56:03.151Z,124.00
2023-10-04T09:57:03.166Z,70.10
2023-10-04T09:58:03.128Z,219.80
2023-10-04T09:59:03.466Z,197.00
2023-10-04T10:00:03.321Z,227.60
2023-10-04T10:01:03.385Z,204.20
2023-10-04T10:02:03.038Z,233.90
2023-10-04T10:03:03.438Z,192.20
2023-10-04T10:04:03.128Z,80.70
2023-10-04T10:05:03.151Z,130.70
2023-10-04T10:06:03.034Z,122.80
2023-10-04T10:07:02.971Z,158.10
2023-10-04T10:08:02.972Z,195.90
2023-10-04T10:09:02.988Z,163.40
2023-10-04T10:10:06.554Z,260.80
2023-10-04T10:11:04.536Z,93.60
2023-10-04T10:12:02.928Z,126.70
2023-10-04T10:13:02.873Z,181.80
2023-10-04T10:14:03.051Z,163.60
2023-10-04T10:15:02.928Z,149.80
2023-10-04T10:16:03.141Z,163.20
2023-10-04T10:17:03.206Z,263.20
2023-10-04T10:18:03.135Z,103.20
2023-10-04T10:19:03.088Z,204.70
2023-10-04T10:20:03.069Z,155.80
2023-10-04T10:21:03.127Z,135.70
2023-10-04T10:22:02.769Z,212.90
2023-10-04T10:23:02.853Z,205.10
2023-10-04T10:24:02.857Z,160.20
2023-10-04T10:25:02.746Z,290.20
2023-10-04T10:26:03.005Z,230.10
2023-10-04T10:27:02.708Z,119.10
2023-10-04T10:28:02.738Z,117.70
2023-10-04T10:29:03.387Z,218.40
2023-10-04T10:30:02.662Z,240.20
2023-10-04T10:31:03.394Z,169.40
2023-10-04T10:32:02.758Z,145.50
2023-10-04T10:33:02.719Z,283.20
2023-10-04T10:34:03.228Z,92.20
2023-10-04T10:35:02.622Z,98.70
2023-10-04T10:36:02.551Z,101.80
2023-10-04T10:37:03.254Z,198.10
2023-10-04T10:38:02.554Z,126.60
2023-10-04T10:39:02.750Z,130.10
2023-10-04T10:40:02.563Z,197.40
2023-10-04T10:41:02.546Z,149.90
2023-10-04T10:42:02.483Z,71.30
2023-10-04T10:43:02.650Z,148.60
2023-10-04T10:44:10.107Z,105.50
2023-10-04T10:45:03.444Z,143.30
2023-10-04T10:46:02.599Z,229.30
2023-10-04T10:47:02.425Z,184.40
2023-10-04T10:48:02.449Z,141.40
2023-10-04T10:49:02.435Z,122.40
2023-10-04T10:50:02.788Z,103.10
2023-10-04T10:51:02.353Z,151.00
2023-10-04T10:52:02.434Z,298.90
2023-10-04T10:53:02.311Z,288.40
2023-10-04T10:54:02.423Z,164.80
2023-10-04T10:55:02.328Z,121.10
2023-10-04T10:56:02.241Z,168.60
2023-10-04T10:57:02.323Z,121.80
2023-10-04T10:58:02.512Z,172.00
2023-10-04T10:59:02.334Z,62.00
2023-10-04T11:00:02.227Z,257.50
2023-10-04T11:01:02.543Z,133.70
2023-10-04T11:02:02.276Z,185.10
2023-10-04T11:03:02.685Z,119.60
2023-10-04T11:04:02.311Z,234.00
2023-10-04T11:05:02.197Z,123.40
2023-10-04T11:06:02.188Z,281.30
2023-10-04T11:07:02.333Z,127.10
2023-10-04T11:08:02.127Z,102.50
2023-10-04T11:09:02.096Z,203.90
2023-10-04T11:10:02.317Z,183.80
2023-10-04T11:11:02.127Z,106.90
2023-10-04T11:12:02.268Z,150.80
2023-10-04T11:13:02.078Z,132.90
2023-10-04T11:14:02.115Z,271.40
2023-10-04T11:15:02.162Z,161.00
2023-10-04T11:16:02.315Z,183.10
2023-10-04T11:17:02.356Z,285.70
2023-10-04T11:18:02.030Z,163.30
2023-10-04T11:19:02.271Z,197.70
2023-10-04T11:20:01.952Z,296.00
2023-10-04T11:21:01.958Z,151.80
2023-10-04T11:22:03.473Z,104.50
2023-10-04T11:23:01.990Z,175.90
2023-10-04T11:24:01.938Z,347.80
2023-10-04T11:25:01.879Z,159.40
2023-10-04T11:26:02.251Z,209.80
2023-10-04T11:27:01.887Z,140.90
2023-10-04T11:28:01.910Z,144.10
2023-10-04T11:29:01.836Z,239.70
2023-10-04T11:30:01.868Z,123.70
2023-10-04T11:31:02.004Z,74.80
2023-10-04T11:32:02.022Z,127.00
2023-10-04T11:33:02.290Z,134.60
2023-10-04T11:34:01.972Z,73.90
2023-10-04T11:35:01.804Z,151.70
2023-10-04T11:36:01.709Z,112.80
2023-10-04T11:37:01.783Z,116.10
2023-10-04T11:38:01.710Z,216.90
2023-10-04T11:39:01.751Z,136.80
2023-10-04T11:40:01.742Z,123.00
2023-10-04T11:41:01.728Z,106.50
2023-10-04T11:42:01.852Z,93.50
2023-10-04T11:43:02.083Z,81.40
2023-10-04T11:44:01.668Z,59.70
2023-10-04T11:45:01.606Z,89.50
2023-10-04T11:46:01.717Z,125.10
2023-10-04T11:47:01.565Z,124.50
2023-10-04T11:48:01.670Z,61.50
2023-10-04T11:49:01.753Z,68.70
2023-10-04T11:50:01.537Z,48.00
2023-10-04T11:51:01.558Z,47.70
2023-10-04T11:52:01.758Z,68.80
2023-10-04T11:53:01.656Z,194.00
2023-10-04T11:54:01.643Z,33.70
2023-10-04T11:55:01.890Z,102.70
2023-10-04T11:56:01.631Z,133.40
2023-10-04T11:57:01.514Z,91.10
2023-10-04T11:58:01.498Z,70.60
2023-10-04T11:59:01.910Z,105.60
2023-10-04T12:00:01.356Z,65.30
2023-10-04T12:01:01.407Z,130.70
2023-10-04T12:02:01.409Z,143.80
2023-10-04T12:03:01.494Z,52.40
2023-10-04T12:04:01.802Z,64.60
2023-10-04T12:05:01.375Z,88.30
2023-10-04T12:06:01.378Z,155.70
2023-10-04T12:07:01.342Z,70.50
2023-10-04T12:08:01.467Z,78.10
2023-10-04T12:09:01.449Z,121.20
2023-10-04T12:10:01.294Z,95.20
2023-10-04T12:11:02.270Z,65.90
2023-10-04T12:12:01.210Z,52.20
2023-10-04T12:13:01.306Z,55.50
2023-10-04T12:14:01.230Z,95.10
2023-10-04T12:15:01.395Z,90.20
2023-10-04T12:16:01.552Z,73.60
2023-10-04T12:17:01.267Z,65.30
2023-10-04T12:18:01.219Z,72.30
2023-10-04T12:19:01.187Z,94.20
2023-10-04T12:20:01.172Z,58.10
2023-10-04T12:21:01.133Z,197.20
2023-10-04T12:22:01.214Z,67.40
2023-10-04T12:23:01.176Z,64.60
2023-10-04T12:24:01.416Z,25.90
2023-10-04T12:25:01.180Z,41.90
2023-10-04T12:26:01.905Z,105.00
2023-10-04T12:27:01.334Z,53.70
2023-10-04T12:28:01.425Z,36.80
2023-10-04T12:29:01.038Z,41.10
2023-10-04T12:30:01.420Z,66.40
2023-10-04T12:31:01.301Z,68.10
2023-10-04T12:32:01.362Z,39.10
2023-10-04T12:33:01.010Z,75.30
2023-10-04T12:34:00.957Z,37.40
2023-10-04T12:35:01.173Z,40.20
2023-10-04T12:36:01.236Z,49.10
2023-10-04T12:37:00.980Z,35.00
2023-10-04T12:38:00.915Z,46.50
2023-10-04T12:39:01.188Z,43.80